sensor_id;sensor_type;location;lat;lon;timestamp;P1;durP1;ratioP1;P2;durP2;ratioP2
19547;SDS011;9919;58.014;11.826;2023-05-16T00:01:10;1.70;;;1.25;;
19547;SDS011;9919;58.014;11.826;2023-05-16T00:03:11;1.00;;;1.00;;
19547;SDS011;9919;58.014;11.826;2023-05-16T00:05:14;1.27;;;1.27;;
19547;SDS011;9919;58.014;11.826;2023-05-16T00:07:16;1.55;;;1.50;;
19547;SDS011;9919;58.014;11.826;2023-05-16T00:09:20;1.20;;;1.20;;
19547;SDS011;9919;58.014;11.826;2023-05-16T00:11:21;1.20;;;1.20;;
19547;SDS011;9919;58.014;11.826;2023-05-16T00:13:22;1.15;;;1.15;;
19547;SDS011;9919;58.014;11.826;2023-05-16T00:15:25;1.42;;;1.40;;
19547;SDS011;9919;58.014;11.826;2023-05-16T00:17:28;0.98;;;0.98;;
19547;SDS011;9919;58.014;11.826;2023-05-16T00:19:31;1.05;;;1.05;;
19547;SDS011;9919;58.014;11.826;2023-05-16T00:21:33;1.30;;;1.30;;
19547;SDS011;9919;58.014;11.826;2023-05-16T00:23:35;1.02;;;1.02;;
19547;SDS011;9919;58.014;11.826;2023-05-16T00:25:37;1.48;;;1.40;;
19547;SDS011;9919;58.014;11.826;2023-05-16T00:27:39;1.20;;;1.10;;
19547;SDS011;9919;58.014;11.826;2023-05-16T00:29:41;1.10;;;1.10;;
19547;SDS011;9919;58.014;11.826;2023-05-16T00:31:43;1.25;;;1.25;;
19547;SDS011;9919;58.014;11.826;2023-05-16T00:33:44;1.00;;;1.00;;
19547;SDS011;9919;58.014;11.826;2023-05-16T00:35:46;1.30;;;1.27;;
19547;SDS011;9919;58.014;11.826;2023-05-16T00:37:49;1.27;;;1.27;;
19547;SDS011;9919;58.014;11.826;2023-05-16T00:39:50;1.33;;;1.25;;
19547;SDS011;9919;58.014;11.826;2023-05-16T00:41:52;1.15;;;1.15;;
19547;SDS011;9919;58.014;11.826;2023-05-16T00:43:53;1.27;;;1.27;;
19547;SDS011;9919;58.014;11.826;2023-05-16T00:45:56;1.27;;;1.17;;
19547;SDS011;9919;58.014;11.826;2023-05-16T00:47:59;1.70;;;1.60;;
19547;SDS011;9919;58.014;11.826;2023-05-16T00:50:02;1.17;;;1.17;;
19547;SDS011;9919;58.014;11.826;2023-05-16T00:52:04;1.17;;;1.17;;
19547;SDS011;9919;58.014;11.826;2023-05-16T00:54:06;1.40;;;1.30;;
19547;SDS011;9919;58.014;11.826;2023-05-16T00:56:07;1.05;;;1.05;;
19547;SDS011;9919;58.014;11.826;2023-05-16T00:58:10;1.13;;;1.08;;
19547;SDS011;9919;58.014;11.826;2023-05-16T01:00:12;1.25;;;1.15;;
19547;SDS011;9919;58.014;11.826;2023-05-16T01:02:15;1.23;;;1.23;;
19547;SDS011;9919;58.014;11.826;2023-05-16T01:04:17;1.20;;;1.20;;
19547;SDS011;9919;58.014;11.826;2023-05-16T01:06:20;1.60;;;1.50;;
19547;SDS011;9919;58.014;11.826;2023-05-16T01:08:22;1.42;;;1.38;;
19547;SDS011;9919;58.014;11.826;2023-05-16T01:10:24;1.55;;;1.45;;
19547;SDS011;9919;58.014;11.826;2023-05-16T01:15:09;1.27;;;1.17;;
19547;SDS011;9919;58.014;11.826;2023-05-16T01:17:21;1.20;;;1.20;;
19547;SDS011;9919;58.014;11.826;2023-05-16T01:26:58;1.20;;;1.20;;
19547;SDS011;9919;58.014;11.826;2023-05-16T01:29:00;1.58;;;1.48;;
19547;SDS011;9919;58.014;11.826;2023-05-16T01:31:02;1.27;;;1.27;;
19547;SDS011;9919;58.014;11.826;2023-05-16T01:33:04;1.27;;;1.27;;
19547;SDS011;9919;58.014;11.826;2023-05-16T01:35:06;1.48;;;1.38;;
19547;SDS011;9919;58.014;11.826;2023-05-16T01:37:14;1.40;;;1.40;;
19547;SDS011;9919;58.014;11.826;2023-05-16T01:39:36;1.40;;;1.38;;
19547;SDS011;9919;58.014;11.826;2023-05-16T01:43:51;1.50;;;1.40;;
19547;SDS011;9919;58.014;11.826;2023-05-16T01:45:59;1.27;;;1.27;;
19547;SDS011;9919;58.014;11.826;2023-05-16T01:48:11;1.58;;;1.48;;
19547;SDS011;9919;58.014;11.826;2023-05-16T01:50:16;1.17;;;1.15;;
19547;SDS011;9919;58.014;11.826;2023-05-16T01:52:27;1.10;;;1.10;;
19547;SDS011;9919;58.014;11.826;2023-05-16T01:54:32;1.20;;;1.20;;
19547;SDS011;9919;58.014;11.826;2023-05-16T01:56:37;1.30;;;1.30;;
19547;SDS011;9919;58.014;11.826;2023-05-16T01:58:39;1.60;;;1.45;;
19547;SDS011;9919;58.014;11.826;2023-05-16T02:00:41;1.20;;;1.20;;
19547;SDS011;9919;58.014;11.826;2023-05-16T02:02:42;1.38;;;1.30;;
19547;SDS011;9919;58.014;11.826;2023-05-16T02:04:44;1.02;;;1.02;;
19547;SDS011;9919;58.014;11.826;2023-05-16T02:06:45;1.15;;;1.13;;
19547;SDS011;9919;58.014;11.826;2023-05-16T02:08:47;1.25;;;1.23;;
19547;SDS011;9919;58.014;11.826;2023-05-16T02:10:48;1.48;;;1.38;;
19547;SDS011;9919;58.014;11.826;2023-05-16T02:12:50;1.60;;;1.50;;
19547;SDS011;9919;58.014;11.826;2023-05-16T02:14:52;1.42;;;1.33;;
19547;SDS011;9919;58.014;11.826;2023-05-16T02:16:53;1.60;;;1.50;;
19547;SDS011;9919;58.014;11.826;2023-05-16T02:18:54;1.25;;;1.25;;
19547;SDS011;9919;58.014;11.826;2023-05-16T02:20:56;1.20;;;1.20;;
19547;SDS011;9919;58.014;11.826;2023-05-16T02:22:57;1.50;;;1.40;;
19547;SDS011;9919;58.014;11.826;2023-05-16T02:25:00;1.13;;;1.13;;
19547;SDS011;9919;58.014;11.826;2023-05-16T02:27:02;1.52;;;1.50;;
19547;SDS011;9919;58.014;11.826;2023-05-16T02:29:04;1.42;;;1.33;;
19547;SDS011;9919;58.014;11.826;2023-05-16T02:31:06;1.40;;;1.30;;
19547;SDS011;9919;58.014;11.826;2023-05-16T02:33:08;1.55;;;1.38;;
19547;SDS011;9919;58.014;11.826;2023-05-16T02:35:10;1.40;;;1.30;;
19547;SDS011;9919;58.014;11.826;2023-05-16T02:37:12;1.60;;;1.30;;
19547;SDS011;9919;58.014;11.826;2023-05-16T02:39:13;1.65;;;1.55;;
19547;SDS011;9919;58.014;11.826;2023-05-16T02:41:16;1.15;;;1.15;;
19547;SDS011;9919;58.014;11.826;2023-05-16T02:43:17;1.48;;;1.38;;
19547;SDS011;9919;58.014;11.826;2023-05-16T02:45:19;1.30;;;1.30;;
19547;SDS011;9919;58.014;11.826;2023-05-16T02:47:20;1.50;;;1.40;;
19547;SDS011;9919;58.014;11.826;2023-05-16T02:49:22;1.60;;;1.50;;
19547;SDS011;9919;58.014;11.826;2023-05-16T02:51:24;2.03;;;1.50;;
19547;SDS011;9919;58.014;11.826;2023-05-16T02:53:26;1.50;;;1.40;;
19547;SDS011;9919;58.014;11.826;2023-05-16T02:55:28;1.80;;;1.70;;
19547;SDS011;9919;58.014;11.826;2023-05-16T02:57:30;1.05;;;1.05;;
19547;SDS011;9919;58.014;11.826;2023-05-16T02:59:31;1.13;;;1.13;;
19547;SDS011;9919;58.014;11.826;2023-05-16T03:01:33;1.80;;;1.67;;
19547;SDS011;9919;58.014;11.826;2023-05-16T03:03:35;1.48;;;1.38;;
19547;SDS011;9919;58.014;11.826;2023-05-16T03:05:38;1.30;;;1.30;;
19547;SDS011;9919;58.014;11.826;2023-05-16T03:07:40;1.65;;;1.55;;
19547;SDS011;9919;58.014;11.826;2023-05-16T03:09:41;1.23;;;1.23;;
19547;SDS011;9919;58.014;11.826;2023-05-16T03:11:44;1.52;;;1.50;;
19547;SDS011;9919;58.014;11.826;2023-05-16T03:13:45;1.38;;;1.38;;
19547;SDS011;9919;58.014;11.826;2023-05-16T03:15:47;1.65;;;1.55;;
19547;SDS011;9919;58.014;11.826;2023-05-16T03:17:49;1.20;;;1.20;;
19547;SDS011;9919;58.014;11.826;2023-05-16T03:19:50;1.63;;;1.52;;
19547;SDS011;9919;58.014;11.826;2023-05-16T03:21:52;1.40;;;1.40;;
19547;SDS011;9919;58.014;11.826;2023-05-16T03:23:54;1.38;;;1.27;;
19547;SDS011;9919;58.014;11.826;2023-05-16T03:25:56;1.55;;;1.55;;
19547;SDS011;9919;58.014;11.826;2023-05-16T03:27:58;1.23;;;1.23;;
19547;SDS011;9919;58.014;11.826;2023-05-16T03:29:59;1.60;;;1.50;;
19547;SDS011;9919;58.014;11.826;2023-05-16T03:32:01;1.58;;;1.48;;
19547;SDS011;9919;58.014;11.826;2023-05-16T03:34:04;1.63;;;1.52;;
19547;SDS011;9919;58.014;11.826;2023-05-16T03:36:05;1.20;;;1.20;;
19547;SDS011;9919;58.014;11.826;2023-05-16T03:38:07;1.20;;;1.20;;
19547;SDS011;9919;58.014;11.826;2023-05-16T03:40:08;1.25;;;1.25;;
19547;SDS011;9919;58.014;11.826;2023-05-16T03:42:12;1.65;;;1.55;;
19547;SDS011;9919;58.014;11.826;2023-05-16T03:44:14;1.75;;;1.65;;
19547;SDS011;9919;58.014;11.826;2023-05-16T03:46:15;1.70;;;1.60;;
19547;SDS011;9919;58.014;11.826;2023-05-16T03:48:17;1.65;;;1.55;;
19547;SDS011;9919;58.014;11.826;2023-05-16T03:50:21;1.63;;;1.52;;
19547;SDS011;9919;58.014;11.826;2023-05-16T03:52:28;1.70;;;1.60;;
19547;SDS011;9919;58.014;11.826;2023-05-16T03:54:30;1.30;;;1.25;;
19547;SDS011;9919;58.014;11.826;2023-05-16T03:56:32;1.67;;;1.58;;
19547;SDS011;9919;58.014;11.826;2023-05-16T03:58:34;1.48;;;1.45;;
19547;SDS011;9919;58.014;11.826;2023-05-16T04:00:36;1.40;;;1.30;;
19547;SDS011;9919;58.014;11.826;2023-05-16T04:02:37;1.60;;;1.50;;
19547;SDS011;9919;58.014;11.826;2023-05-16T04:04:39;1.48;;;1.38;;
19547;SDS011;9919;58.014;11.826;2023-05-16T04:06:41;1.75;;;1.65;;
19547;SDS011;9919;58.014;11.826;2023-05-16T04:08:43;1.48;;;1.38;;
19547;SDS011;9919;58.014;11.826;2023-05-16T04:10:45;1.60;;;1.50;;
19547;SDS011;9919;58.014;11.826;2023-05-16T04:12:46;1.80;;;1.70;;
19547;SDS011;9919;58.014;11.826;2023-05-16T04:14:47;1.30;;;1.27;;
19547;SDS011;9919;58.014;11.826;2023-05-16T04:16:49;1.80;;;1.70;;
19547;SDS011;9919;58.014;11.826;2023-05-16T04:18:50;1.88;;;1.60;;
19547;SDS011;9919;58.014;11.826;2023-05-16T04:20:52;1.60;;;1.50;;
19547;SDS011;9919;58.014;11.826;2023-05-16T04:22:53;1.55;;;1.42;;
19547;SDS011;9919;58.014;11.826;2023-05-16T04:24:56;1.30;;;1.30;;
19547;SDS011;9919;58.014;11.826;2023-05-16T04:26:58;1.33;;;1.33;;
19547;SDS011;9919;58.014;11.826;2023-05-16T04:29:01;1.70;;;1.60;;
19547;SDS011;9919;58.014;11.826;2023-05-16T04:31:03;1.45;;;1.33;;
19547;SDS011;9919;58.014;11.826;2023-05-16T04:33:04;1.55;;;1.45;;
19547;SDS011;9919;58.014;11.826;2023-05-16T04:35:06;1.60;;;1.50;;
19547;SDS011;9919;58.014;11.826;2023-05-16T04:37:09;1.30;;;1.20;;
19547;SDS011;9919;58.014;11.826;2023-05-16T04:39:11;1.30;;;1.30;;
19547;SDS011;9919;58.014;11.826;2023-05-16T04:41:15;1.45;;;1.45;;
19547;SDS011;9919;58.014;11.826;2023-05-16T04:43:16;1.23;;;1.23;;
19547;SDS011;9919;58.014;11.826;2023-05-16T04:45:19;1.50;;;1.40;;
19547;SDS011;9919;58.014;11.826;2023-05-16T04:47:20;1.52;;;1.42;;
19547;SDS011;9919;58.014;11.826;2023-05-16T04:49:24;1.63;;;1.52;;
19547;SDS011;9919;58.014;11.826;2023-05-16T04:51:25;1.33;;;1.33;;
19547;SDS011;9919;58.014;11.826;2023-05-16T04:53:27;1.27;;;1.20;;
19547;SDS011;9919;58.014;11.826;2023-05-16T04:55:28;1.45;;;1.35;;
19547;SDS011;9919;58.014;11.826;2023-05-16T04:57:30;1.88;;;1.70;;
19547;SDS011;9919;58.014;11.826;2023-05-16T04:59:32;1.88;;;1.77;;
19547;SDS011;9919;58.014;11.826;2023-05-16T05:01:33;1.52;;;1.42;;
19547;SDS011;9919;58.014;11.826;2023-05-16T05:03:35;1.83;;;1.73;;
19547;SDS011;9919;58.014;11.826;2023-05-16T05:05:37;1.60;;;1.50;;
19547;SDS011;9919;58.014;11.826;2023-05-16T05:07:38;1.70;;;1.60;;
19547;SDS011;9919;58.014;11.826;2023-05-16T05:09:40;1.52;;;1.45;;
19547;SDS011;9919;58.014;11.826;2023-05-16T05:11:42;1.40;;;1.40;;
19547;SDS011;9919;58.014;11.826;2023-05-16T05:13:45;1.40;;;1.30;;
19547;SDS011;9919;58.014;11.826;2023-05-16T05:15:48;2.03;;;1.90;;
19547;SDS011;9919;58.014;11.826;2023-05-16T05:17:51;1.65;;;1.55;;
19547;SDS011;9919;58.014;11.826;2023-05-16T05:19:54;1.40;;;1.30;;
19547;SDS011;9919;58.014;11.826;2023-05-16T05:21:56;1.70;;;1.60;;
19547;SDS011;9919;58.014;11.826;2023-05-16T05:23:58;4.38;;;1.85;;
19547;SDS011;9919;58.014;11.826;2023-05-16T05:26:00;2.08;;;1.80;;
19547;SDS011;9919;58.014;11.826;2023-05-16T05:28:03;1.75;;;1.65;;
19547;SDS011;9919;58.014;11.826;2023-05-16T05:30:05;1.90;;;1.70;;
19547;SDS011;9919;58.014;11.826;2023-05-16T05:32:09;1.90;;;1.80;;
19547;SDS011;9919;58.014;11.826;2023-05-16T05:34:12;1.80;;;1.70;;
19547;SDS011;9919;58.014;11.826;2023-05-16T05:36:14;1.70;;;1.60;;
19547;SDS011;9919;58.014;11.826;2023-05-16T05:38:16;1.65;;;1.55;;
19547;SDS011;9919;58.014;11.826;2023-05-16T05:40:17;1.70;;;1.60;;
19547;SDS011;9919;58.014;11.826;2023-05-16T05:42:20;1.42;;;1.42;;
19547;SDS011;9919;58.014;11.826;2023-05-16T05:44:25;1.90;;;1.80;;
19547;SDS011;9919;58.014;11.826;2023-05-16T05:46:26;2.20;;;2.00;;
19547;SDS011;9919;58.014;11.826;2023-05-16T05:48:28;2.03;;;1.92;;
19547;SDS011;9919;58.014;11.826;2023-05-16T05:50:32;2.55;;;1.60;;
19547;SDS011;9919;58.014;11.826;2023-05-16T05:52:33;2.10;;;1.83;;
19547;SDS011;9919;58.014;11.826;2023-05-16T05:54:34;1.83;;;1.73;;
19547;SDS011;9919;58.014;11.826;2023-05-16T05:56:37;2.42;;;1.88;;
19547;SDS011;9919;58.014;11.826;2023-05-16T05:58:38;1.75;;;1.65;;
19547;SDS011;9919;58.014;11.826;2023-05-16T06:00:41;1.80;;;1.70;;
19547;SDS011;9919;58.014;11.826;2023-05-16T06:02:43;1.77;;;1.67;;
19547;SDS011;9919;58.014;11.826;2023-05-16T06:04:44;1.83;;;1.73;;
19547;SDS011;9919;58.014;11.826;2023-05-16T06:06:46;2.33;;;2.20;;
19547;SDS011;9919;58.014;11.826;2023-05-16T06:08:49;2.30;;;1.70;;
19547;SDS011;9919;58.014;11.826;2023-05-16T06:10:51;1.75;;;1.60;;
19547;SDS011;9919;58.014;11.826;2023-05-16T06:12:54;1.83;;;1.73;;
19547;SDS011;9919;58.014;11.826;2023-05-16T06:14:55;2.25;;;2.15;;
19547;SDS011;9919;58.014;11.826;2023-05-16T06:16:56;1.40;;;1.40;;
19547;SDS011;9919;58.014;11.826;2023-05-16T06:19:00;1.80;;;1.70;;
19547;SDS011;9919;58.014;11.826;2023-05-16T06:21:06;1.80;;;1.70;;
19547;SDS011;9919;58.014;11.826;2023-05-16T06:23:07;1.67;;;1.58;;
19547;SDS011;9919;58.014;11.826;2023-05-16T06:25:09;1.50;;;1.40;;
19547;SDS011;9919;58.014;11.826;2023-05-16T06:27:11;2.05;;;1.80;;
19547;SDS011;9919;58.014;11.826;2023-05-16T06:29:12;1.90;;;1.80;;
19547;SDS011;9919;58.014;11.826;2023-05-16T06:31:14;2.10;;;2.00;;
19547;SDS011;9919;58.014;11.826;2023-05-16T06:33:15;1.90;;;1.80;;
19547;SDS011;9919;58.014;11.826;2023-05-16T06:35:17;1.90;;;1.80;;
19547;SDS011;9919;58.014;11.826;2023-05-16T06:37:20;2.40;;;1.80;;
19547;SDS011;9919;58.014;11.826;2023-05-16T06:39:22;2.08;;;1.95;;
19547;SDS011;9919;58.014;11.826;2023-05-16T06:41:23;2.05;;;1.95;;
19547;SDS011;9919;58.014;11.826;2023-05-16T06:43:25;1.58;;;1.48;;
19547;SDS011;9919;58.014;11.826;2023-05-16T06:45:27;2.85;;;2.00;;
19547;SDS011;9919;58.014;11.826;2023-05-16T06:47:28;1.95;;;1.85;;
19547;SDS011;9919;58.014;11.826;2023-05-16T06:49:32;1.90;;;1.80;;
19547;SDS011;9919;58.014;11.826;2023-05-16T06:51:35;2.17;;;2.08;;
19547;SDS011;9919;58.014;11.826;2023-05-16T06:53:36;2.03;;;1.92;;
19547;SDS011;9919;58.014;11.826;2023-05-16T06:55:44;2.40;;;2.20;;
19547;SDS011;9919;58.014;11.826;2023-05-16T06:57:46;2.08;;;1.98;;
19547;SDS011;9919;58.014;11.826;2023-05-16T06:59:49;2.30;;;2.10;;
19547;SDS011;9919;58.014;11.826;2023-05-16T07:01:50;2.17;;;2.08;;
19547;SDS011;9919;58.014;11.826;2023-05-16T07:03:52;2.53;;;2.33;;
19547;SDS011;9919;58.014;11.826;2023-05-16T07:05:54;2.20;;;2.08;;
19547;SDS011;9919;58.014;11.826;2023-05-16T07:07:57;2.22;;;2.13;;
19547;SDS011;9919;58.014;11.826;2023-05-16T07:09:58;2.25;;;2.00;;
19547;SDS011;9919;58.014;11.826;2023-05-16T07:12:00;2.25;;;1.85;;
19547;SDS011;9919;58.014;11.826;2023-05-16T07:14:02;2.28;;;2.13;;
19547;SDS011;9919;58.014;11.826;2023-05-16T07:16:04;2.70;;;2.50;;
19547;SDS011;9919;58.014;11.826;2023-05-16T07:18:07;2.35;;;2.22;;
19547;SDS011;9919;58.014;11.826;2023-05-16T07:20:08;2.33;;;2.15;;
19547;SDS011;9919;58.014;11.826;2023-05-16T07:22:13;1.95;;;1.85;;
19547;SDS011;9919;58.014;11.826;2023-05-16T07:24:14;2.22;;;2.03;;
19547;SDS011;9919;58.014;11.826;2023-05-16T07:26:16;2.25;;;2.08;;
19547;SDS011;9919;58.014;11.826;2023-05-16T07:28:17;2.90;;;2.70;;
19547;SDS011;9919;58.014;11.826;2023-05-16T07:30:21;2.20;;;2.00;;
19547;SDS011;9919;58.014;11.826;2023-05-16T07:32:22;2.47;;;2.08;;
19547;SDS011;9919;58.014;11.826;2023-05-16T07:34:23;2.72;;;2.50;;
19547;SDS011;9919;58.014;11.826;2023-05-16T07:36:25;2.60;;;2.40;;
19547;SDS011;9919;58.014;11.826;2023-05-16T07:38:26;3.00;;;2.63;;
19547;SDS011;9919;58.014;11.826;2023-05-16T07:40:28;4.85;;;3.03;;
19547;SDS011;9919;58.014;11.826;2023-05-16T07:42:30;3.25;;;3.00;;
19547;SDS011;9919;58.014;11.826;2023-05-16T07:44:31;3.65;;;2.90;;
19547;SDS011;9919;58.014;11.826;2023-05-16T07:46:33;3.38;;;2.88;;
19547;SDS011;9919;58.014;11.826;2023-05-16T07:48:34;2.83;;;2.55;;
19547;SDS011;9919;58.014;11.826;2023-05-16T07:50:36;2.67;;;2.47;;
19547;SDS011;9919;58.014;11.826;2023-05-16T07:52:38;2.83;;;2.60;;
19547;SDS011;9919;58.014;11.826;2023-05-16T07:54:39;3.08;;;2.78;;
19547;SDS011;9919;58.014;11.826;2023-05-16T07:56:41;3.63;;;2.90;;
19547;SDS011;9919;58.014;11.826;2023-05-16T07:58:42;3.13;;;2.83;;
19547;SDS011;9919;58.014;11.826;2023-05-16T08:00:44;3.80;;;3.25;;
19547;SDS011;9919;58.014;11.826;2023-05-16T08:02:45;3.50;;;2.63;;
19547;SDS011;9919;58.014;11.826;2023-05-16T08:04:47;2.92;;;2.72;;
19547;SDS011;9919;58.014;11.826;2023-05-16T08:06:49;3.78;;;2.35;;
19547;SDS011;9919;58.014;11.826;2023-05-16T08:08:50;4.22;;;2.75;;
19547;SDS011;9919;58.014;11.826;2023-05-16T08:10:51;3.22;;;2.85;;
19547;SDS011;9919;58.014;11.826;2023-05-16T08:12:53;3.92;;;3.28;;
19547;SDS011;9919;58.014;11.826;2023-05-16T08:14:55;4.20;;;2.72;;
19547;SDS011;9919;58.014;11.826;2023-05-16T08:16:57;2.95;;;2.75;;
19547;SDS011;9919;58.014;11.826;2023-05-16T08:18:59;2.90;;;2.67;;
19547;SDS011;9919;58.014;11.826;2023-05-16T08:21:00;3.92;;;3.13;;
19547;SDS011;9919;58.014;11.826;2023-05-16T08:23:02;3.45;;;3.00;;
19547;SDS011;9919;58.014;11.826;2023-05-16T08:25:04;3.05;;;2.80;;
19547;SDS011;9919;58.014;11.826;2023-05-16T08:27:06;7.47;;;3.00;;
19547;SDS011;9919;58.014;11.826;2023-05-16T08:29:08;2.85;;;2.63;;
19547;SDS011;9919;58.014;11.826;2023-05-16T08:31:10;2.60;;;2.40;;
19547;SDS011;9919;58.014;11.826;2023-05-16T08:33:11;3.45;;;3.00;;
19547;SDS011;9919;58.014;11.826;2023-05-16T08:35:13;2.65;;;2.45;;
19547;SDS011;9919;58.014;11.826;2023-05-16T08:37:15;2.90;;;2.70;;
19547;SDS011;9919;58.014;11.826;2023-05-16T08:39:16;2.53;;;2.33;;
19547;SDS011;9919;58.014;11.826;2023-05-16T08:41:17;3.10;;;2.80;;
19547;SDS011;9919;58.014;11.826;2023-05-16T08:43:20;3.10;;;2.90;;
19547;SDS011;9919;58.014;11.826;2023-05-16T08:45:22;2.75;;;2.47;;
19547;SDS011;9919;58.014;11.826;2023-05-16T08:47:23;2.95;;;2.72;;
19547;SDS011;9919;58.014;11.826;2023-05-16T08:49:27;3.22;;;2.92;;
19547;SDS011;9919;58.014;11.826;2023-05-16T08:51:31;3.13;;;2.50;;
19547;SDS011;9919;58.014;11.826;2023-05-16T08:53:39;3.75;;;2.72;;
19547;SDS011;9919;58.014;11.826;2023-05-16T08:55:43;2.40;;;2.20;;
19547;SDS011;9919;58.014;11.826;2023-05-16T08:57:47;4.53;;;2.47;;
19547;SDS011;9919;58.014;11.826;2023-05-16T08:59:50;2.72;;;2.53;;
19547;SDS011;9919;58.014;11.826;2023-05-16T09:01:54;2.70;;;2.50;;
19547;SDS011;9919;58.014;11.826;2023-05-16T09:03:56;3.78;;;2.80;;
19547;SDS011;9919;58.014;11.826;2023-05-16T09:05:59;3.25;;;2.65;;
19547;SDS011;9919;58.014;11.826;2023-05-16T09:08:00;2.15;;;2.05;;
19547;SDS011;9919;58.014;11.826;2023-05-16T09:10:01;2.78;;;2.58;;
19547;SDS011;9919;58.014;11.826;2023-05-16T09:12:06;3.85;;;2.35;;
19547;SDS011;9919;58.014;11.826;2023-05-16T09:14:08;2.58;;;2.38;;
19547;SDS011;9919;58.014;11.826;2023-05-16T09:16:11;2.63;;;2.42;;
19547;SDS011;9919;58.014;11.826;2023-05-16T09:18:14;2.95;;;2.58;;
19547;SDS011;9919;58.014;11.826;2023-05-16T09:20:18;2.85;;;2.40;;
19547;SDS011;9919;58.014;11.826;2023-05-16T09:22:20;17.15;;;4.05;;
19547;SDS011;9919;58.014;11.826;2023-05-16T09:24:24;6.85;;;2.90;;
19547;SDS011;9919;58.014;11.826;2023-05-16T09:26:26;11.60;;;3.05;;
19547;SDS011;9919;58.014;11.826;2023-05-16T09:28:29;4.45;;;2.80;;
19547;SDS011;9919;58.014;11.826;2023-05-16T09:30:32;7.28;;;2.90;;
19547;SDS011;9919;58.014;11.826;2023-05-16T09:32:34;6.05;;;2.83;;
19547;SDS011;9919;58.014;11.826;2023-05-16T09:34:45;2.65;;;2.45;;
19547;SDS011;9919;58.014;11.826;2023-05-16T09:36:53;3.33;;;2.50;;
19547;SDS011;9919;58.014;11.826;2023-05-16T09:38:54;2.97;;;2.78;;
19547;SDS011;9919;58.014;11.826;2023-05-16T09:40:55;4.05;;;2.70;;
19547;SDS011;9919;58.014;11.826;2023-05-16T09:43:01;2.50;;;2.30;;
19547;SDS011;9919;58.014;11.826;2023-05-16T09:45:07;2.83;;;2.60;;
19547;SDS011;9919;58.014;11.826;2023-05-16T09:47:16;2.50;;;2.30;;
19547;SDS011;9919;58.014;11.826;2023-05-16T09:49:18;5.28;;;2.30;;
19547;SDS011;9919;58.014;11.826;2023-05-16T09:51:21;2.70;;;2.50;;
19547;SDS011;9919;58.014;11.826;2023-05-16T09:53:26;2.53;;;2.30;;
19547;SDS011;9919;58.014;11.826;2023-05-16T09:55:29;2.05;;;1.95;;
19547;SDS011;9919;58.014;11.826;2023-05-16T09:57:30;3.03;;;2.60;;
19547;SDS011;9919;58.014;11.826;2023-05-16T09:59:38;3.45;;;2.50;;
19547;SDS011;9919;58.014;11.826;2023-05-16T10:01:40;3.67;;;2.70;;
19547;SDS011;9919;58.014;11.826;2023-05-16T10:03:42;5.05;;;2.50;;
19547;SDS011;9919;58.014;11.826;2023-05-16T10:05:44;4.05;;;2.28;;
19547;SDS011;9919;58.014;11.826;2023-05-16T10:07:45;2.80;;;2.35;;
19547;SDS011;9919;58.014;11.826;2023-05-16T10:09:49;2.75;;;2.55;;
19547;SDS011;9919;58.014;11.826;2023-05-16T10:11:52;2.08;;;1.90;;
19547;SDS011;9919;58.014;11.826;2023-05-16T10:13:55;2.78;;;2.42;;
19547;SDS011;9919;58.014;11.826;2023-05-16T10:15:57;2.35;;;2.15;;
19547;SDS011;9919;58.014;11.826;2023-05-16T10:17:59;2.25;;;2.15;;
19547;SDS011;9919;58.014;11.826;2023-05-16T10:20:04;2.10;;;2.00;;
19547;SDS011;9919;58.014;11.826;2023-05-16T10:22:07;2.67;;;2.30;;
19547;SDS011;9919;58.014;11.826;2023-05-16T10:24:09;2.83;;;2.30;;
19547;SDS011;9919;58.014;11.826;2023-05-16T10:26:11;2.70;;;2.20;;
19547;SDS011;9919;58.014;11.826;2023-05-16T10:28:15;2.30;;;2.10;;
19547;SDS011;9919;58.014;11.826;2023-05-16T10:30:17;2.55;;;2.33;;
19547;SDS011;9919;58.014;11.826;2023-05-16T10:32:18;2.88;;;2.20;;
19547;SDS011;9919;58.014;11.826;2023-05-16T10:34:22;2.35;;;2.15;;
19547;SDS011;9919;58.014;11.826;2023-05-16T10:36:23;1.98;;;1.88;;
19547;SDS011;9919;58.014;11.826;2023-05-16T10:38:25;2.25;;;2.15;;
19547;SDS011;9919;58.014;11.826;2023-05-16T10:40:27;2.13;;;2.00;;
19547;SDS011;9919;58.014;11.826;2023-05-16T10:42:31;2.20;;;2.10;;
19547;SDS011;9919;58.014;11.826;2023-05-16T10:44:33;2.60;;;2.40;;
19547;SDS011;9919;58.014;11.826;2023-05-16T10:46:34;2.50;;;2.30;;
19547;SDS011;9919;58.014;11.826;2023-05-16T10:48:36;3.17;;;2.85;;
19547;SDS011;9919;58.014;11.826;2023-05-16T10:50:39;2.65;;;2.35;;
19547;SDS011;9919;58.014;11.826;2023-05-16T10:52:44;3.10;;;2.28;;
19547;SDS011;9919;58.014;11.826;2023-05-16T10:54:49;2.35;;;2.15;;
19547;SDS011;9919;58.014;11.826;2023-05-16T10:56:54;2.13;;;2.03;;
19547;SDS011;9919;58.014;11.826;2023-05-16T10:58:56;2.67;;;2.03;;
19547;SDS011;9919;58.014;11.826;2023-05-16T11:03:21;2.30;;;2.15;;
19547;SDS011;9919;58.014;11.826;2023-05-16T11:05:27;2.45;;;2.17;;
19547;SDS011;9919;58.014;11.826;2023-05-16T11:07:31;2.10;;;2.00;;
19547;SDS011;9919;58.014;11.826;2023-05-16T11:09:34;2.63;;;2.42;;
19547;SDS011;9919;58.014;11.826;2023-05-16T11:13:55;5.28;;;2.47;;
19547;SDS011;9919;58.014;11.826;2023-05-16T11:18:30;2.40;;;2.05;;
19547;SDS011;9919;58.014;11.826;2023-05-16T11:20:34;2.53;;;2.10;;
19547;SDS011;9919;58.014;11.826;2023-05-16T11:22:39;6.78;;;2.15;;
19547;SDS011;9919;58.014;11.826;2023-05-16T11:24:54;2.90;;;2.70;;
19547;SDS011;9919;58.014;11.826;2023-05-16T11:26:56;3.05;;;2.85;;
19547;SDS011;9919;58.014;11.826;2023-05-16T11:28:59;2.45;;;2.25;;
19547;SDS011;9919;58.014;11.826;2023-05-16T11:31:03;2.28;;;2.17;;
19547;SDS011;9919;58.014;11.826;2023-05-16T11:33:05;3.10;;;2.40;;
19547;SDS011;9919;58.014;11.826;2023-05-16T11:35:07;2.55;;;2.15;;
19547;SDS011;9919;58.014;11.826;2023-05-16T11:37:10;2.80;;;2.60;;
19547;SDS011;9919;58.014;11.826;2023-05-16T11:39:12;2.63;;;2.42;;
19547;SDS011;9919;58.014;11.826;2023-05-16T11:41:13;2.38;;;1.92;;
19547;SDS011;9919;58.014;11.826;2023-05-16T11:43:17;2.40;;;2.20;;
19547;SDS011;9919;58.014;11.826;2023-05-16T11:45:19;2.50;;;2.33;;
19547;SDS011;9919;58.014;11.826;2023-05-16T11:47:24;2.58;;;2.38;;
19547;SDS011;9919;58.014;11.826;2023-05-16T11:49:27;2.90;;;2.53;;
19547;SDS011;9919;58.014;11.826;2023-05-16T11:51:29;2.58;;;2.33;;
19547;SDS011;9919;58.014;11.826;2023-05-16T11:53:31;2.65;;;2.45;;
19547;SDS011;9919;58.014;11.826;2023-05-16T11:55:32;2.78;;;2.42;;
19547;SDS011;9919;58.014;11.826;2023-05-16T11:57:34;2.83;;;2.40;;
19547;SDS011;9919;58.014;11.826;2023-05-16T11:59:37;5.57;;;2.50;;
19547;SDS011;9919;58.014;11.826;2023-05-16T12:01:39;2.38;;;2.17;;
19547;SDS011;9919;58.014;11.826;2023-05-16T12:03:41;2.72;;;2.53;;
19547;SDS011;9919;58.014;11.826;2023-05-16T12:05:48;1.90;;;1.80;;
19547;SDS011;9919;58.014;11.826;2023-05-16T12:07:53;2.35;;;2.15;;
19547;SDS011;9919;58.014;11.826;2023-05-16T12:09:54;3.92;;;2.50;;
19547;SDS011;9919;58.014;11.826;2023-05-16T12:11:56;2.30;;;2.10;;
19547;SDS011;9919;58.014;11.826;2023-05-16T12:13:57;2.33;;;2.20;;
19547;SDS011;9919;58.014;11.826;2023-05-16T12:15:59;2.40;;;2.20;;
19547;SDS011;9919;58.014;11.826;2023-05-16T12:18:00;2.30;;;2.10;;
19547;SDS011;9919;58.014;11.826;2023-05-16T12:20:03;2.45;;;2.15;;
19547;SDS011;9919;58.014;11.826;2023-05-16T12:22:14;2.40;;;2.22;;
19547;SDS011;9919;58.014;11.826;2023-05-16T12:24:17;4.50;;;2.10;;
19547;SDS011;9919;58.014;11.826;2023-05-16T12:26:38;2.20;;;2.00;;
19547;SDS011;9919;58.014;11.826;2023-05-16T12:28:40;4.47;;;2.20;;
19547;SDS011;9919;58.014;11.826;2023-05-16T12:30:43;2.40;;;2.20;;
19547;SDS011;9919;58.014;11.826;2023-05-16T12:32:51;2.83;;;2.10;;
19547;SDS011;9919;58.014;11.826;2023-05-16T12:35:22;2.10;;;1.92;;
19547;SDS011;9919;58.014;11.826;2023-05-16T12:37:24;2.55;;;2.35;;
19547;SDS011;9919;58.014;11.826;2023-05-16T12:39:26;2.50;;;2.30;;